Share

Anholt Island, Denmark

Aarhus (EKAH) Elev 75 ft | 56.31 °N, 10.63 °E | Change Station

Current weather conditions updated 6 minutes ago

Clear
Clear
48 °F
Feels Like 48 °F
N
4
Wind Variable Wind from NE
Sunrise 5:54 AM
Sunset 8:32 PM
Moon Waning Gibbous

Tomorrow is forecast to be Much Cooler than today. A few showers developing late tomorrow night.

Pressure 30.06 in
Visibility 6.2 miles
Clouds
Dew Point 41 °F
Humidity 76%
Rainfall 0.00 in
Snow Depth Not available.
UV Not available.
Pollen Not available.
Air Quality Not available.
Flu Activity Not available.
METAR EKAH 202050Z AUTO 05003KT 9999NDV NCD 09/05 Q1018

More Conditions Fewer Conditions

Pressure 30.06 in
Visibility 6.2 miles
Clouds
Dew Point 41 °F
Humidity 76%
Rainfall 0.00 in
Snow Depth Not available.
UV Not available.
Pollen Not available.
Air Quality Not available.
Flu Activity Not available.
METAR EKAH 202050Z AUTO 05003KT 9999NDV NCD 09/05 Q1018

More Conditions Fewer Conditions

10-Day Weather Forecast

Almanac

Astronomy

Apr. 20, 2014 Rise Set
Actual Time 5:54 AM CEST 8:32 PM CEST
Civil Twilight 5:12 AM CEST 9:15 PM CEST
Nautical Twilight 4:16 AM CEST 10:11 PM CEST
Astronomical Twilight 3:05 AM CEST 11:24 PM CEST
Moon 1:22 AM CEST 9:31 AM CEST
Length of Visible Light 16h 03m
Length of Day
14h 38m
Tomorrow will be 4m 38s longer.
Waning Gibbous, 66% of the Moon is Illuminated
Today
Waning Gibbous
Apr 22
Last Quarter
Apr 29
New
May 6
First Quarter
May 14
Full

Today's Extremes

Country Highs Country Lows

Community

  • Morning Sun
    Morning Sun
  • after rain
    after rain
  • Columbine
    Columbine
  • Easter Sunrise
    Easter Sunrise
  • Easter Eve - The Promise - Lake Palestine, TX
    Easter Eve - The Promise - Lake Palestine, TX

WunderPhotos

Upload Photos

1,703,351 photos uploaded!

WunderBlogs® & News

Nearby

Snow Depth

Not available.

Coastal Water Temperatures

Place Temperature
No Stations Reporting

Earthquake Activity

City Distance Mag. Time & Date
No recent earthquake activity has been reported nearby.
Minimum magnitude displayed is 2.5.

Nearby Weather Stations

There are no personal weather stations in this area.

What do you think?

We're not finished. Please let us know what you like, what you don't like, and what you are still missing.